sensor_id;sensor_type;location;lat;lon;timestamp;P1;durP1;ratioP1;P2;durP2;ratioP2
72439;SDS011;60446;50.752;4.352;2023-07-31T00:00:17;13.32;;;2.45;;
72439;SDS011;60446;50.752;4.352;2023-07-31T00:02:44;9.80;;;2.60;;
72439;SDS011;60446;50.752;4.352;2023-07-31T00:05:12;13.15;;;2.15;;
72439;SDS011;60446;50.752;4.352;2023-07-31T00:07:39;11.40;;;3.30;;
72439;SDS011;60446;50.752;4.352;2023-07-31T00:10:06;12.40;;;2.55;;
72439;SDS011;60446;50.752;4.352;2023-07-31T00:12:34;12.50;;;1.98;;
72439;SDS011;60446;50.752;4.352;2023-07-31T00:15:01;9.57;;;2.35;;
72439;SDS011;60446;50.752;4.352;2023-07-31T00:17:29;12.52;;;2.30;;
72439;SDS011;60446;50.752;4.352;2023-07-31T00:19:56;16.87;;;2.23;;
72439;SDS011;60446;50.752;4.352;2023-07-31T00:22:23;10.40;;;2.00;;
72439;SDS011;60446;50.752;4.352;2023-07-31T00:24:51;10.55;;;2.08;;
72439;SDS011;60446;50.752;4.352;2023-07-31T00:27:18;10.70;;;2.55;;
72439;SDS011;60446;50.752;4.352;2023-07-31T00:29:45;11.40;;;2.38;;
72439;SDS011;60446;50.752;4.352;2023-07-31T00:32:12;11.13;;;2.83;;
72439;SDS011;60446;50.752;4.352;2023-07-31T00:34:39;10.25;;;2.53;;
72439;SDS011;60446;50.752;4.352;2023-07-31T00:37:07;10.75;;;2.40;;
72439;SDS011;60446;50.752;4.352;2023-07-31T00:39:34;7.85;;;2.40;;
72439;SDS011;60446;50.752;4.352;2023-07-31T00:42:02;12.55;;;3.08;;
72439;SDS011;60446;50.752;4.352;2023-07-31T00:44:30;12.83;;;2.30;;
72439;SDS011;60446;50.752;4.352;2023-07-31T00:46:59;10.30;;;2.72;;
72439;SDS011;60446;50.752;4.352;2023-07-31T00:49:26;9.68;;;2.08;;
72439;SDS011;60446;50.752;4.352;2023-07-31T00:51:54;9.43;;;2.30;;
72439;SDS011;60446;50.752;4.352;2023-07-31T00:54:24;11.15;;;2.30;;
72439;SDS011;60446;50.752;4.352;2023-07-31T00:56:52;13.17;;;2.33;;
72439;SDS011;60446;50.752;4.352;2023-07-31T00:59:21;10.30;;;2.28;;
72439;SDS011;60446;50.752;4.352;2023-07-31T01:01:48;11.07;;;2.42;;
72439;SDS011;60446;50.752;4.352;2023-07-31T01:04:16;10.07;;;2.72;;
72439;SDS011;60446;50.752;4.352;2023-07-31T01:12:51;8.57;;;2.35;;
72439;SDS011;60446;50.752;4.352;2023-07-31T01:15:20;10.98;;;2.38;;
72439;SDS011;60446;50.752;4.352;2023-07-31T01:17:47;9.48;;;2.55;;
72439;SDS011;60446;50.752;4.352;2023-07-31T01:20:22;13.20;;;2.85;;
72439;SDS011;60446;50.752;4.352;2023-07-31T01:31:21;10.48;;;2.72;;
72439;SDS011;60446;50.752;4.352;2023-07-31T01:33:54;10.75;;;2.78;;
72439;SDS011;60446;50.752;4.352;2023-07-31T01:36:27;9.47;;;2.83;;
72439;SDS011;60446;50.752;4.352;2023-07-31T01:39:01;11.68;;;2.97;;
72439;SDS011;60446;50.752;4.352;2023-07-31T01:41:30;11.10;;;2.80;;
72439;SDS011;60446;50.752;4.352;2023-07-31T01:43:57;11.98;;;3.00;;
72439;SDS011;60446;50.752;4.352;2023-07-31T01:46:24;10.25;;;2.97;;
72439;SDS011;60446;50.752;4.352;2023-07-31T01:48:51;14.07;;;2.83;;
72439;SDS011;60446;50.752;4.352;2023-07-31T01:51:19;10.75;;;2.75;;
72439;SDS011;60446;50.752;4.352;2023-07-31T01:53:46;10.00;;;2.78;;
72439;SDS011;60446;50.752;4.352;2023-07-31T01:56:13;12.00;;;3.13;;
72439;SDS011;60446;50.752;4.352;2023-07-31T01:58:40;9.48;;;2.95;;
72439;SDS011;60446;50.752;4.352;2023-07-31T02:01:08;9.97;;;3.20;;
72439;SDS011;60446;50.752;4.352;2023-07-31T02:03:35;10.23;;;2.67;;
72439;SDS011;60446;50.752;4.352;2023-07-31T02:06:02;9.32;;;3.10;;
72439;SDS011;60446;50.752;4.352;2023-07-31T02:08:29;10.45;;;3.13;;
72439;SDS011;60446;50.752;4.352;2023-07-31T02:10:56;10.25;;;3.25;;
72439;SDS011;60446;50.752;4.352;2023-07-31T02:13:24;8.83;;;2.70;;
72439;SDS011;60446;50.752;4.352;2023-07-31T02:15:51;12.07;;;2.80;;
72439;SDS011;60446;50.752;4.352;2023-07-31T02:18:18;10.45;;;3.22;;
72439;SDS011;60446;50.752;4.352;2023-07-31T02:20:49;10.30;;;3.05;;
72439;SDS011;60446;50.752;4.352;2023-07-31T02:23:18;15.25;;;2.90;;
72439;SDS011;60446;50.752;4.352;2023-07-31T02:25:46;9.47;;;3.00;;
72439;SDS011;60446;50.752;4.352;2023-07-31T02:28:13;9.52;;;2.33;;
72439;SDS011;60446;50.752;4.352;2023-07-31T02:30:43;10.68;;;2.53;;
72439;SDS011;60446;50.752;4.352;2023-07-31T02:33:14;8.32;;;2.38;;
72439;SDS011;60446;50.752;4.352;2023-07-31T02:35:42;8.75;;;2.55;;
72439;SDS011;60446;50.752;4.352;2023-07-31T02:38:09;12.77;;;2.70;;
72439;SDS011;60446;50.752;4.352;2023-07-31T02:40:37;9.38;;;2.92;;
72439;SDS011;60446;50.752;4.352;2023-07-31T02:43:05;10.38;;;2.45;;
72439;SDS011;60446;50.752;4.352;2023-07-31T02:45:33;8.43;;;2.42;;
72439;SDS011;60446;50.752;4.352;2023-07-31T02:48:01;9.15;;;2.45;;
72439;SDS011;60446;50.752;4.352;2023-07-31T02:50:28;9.37;;;2.17;;
72439;SDS011;60446;50.752;4.352;2023-07-31T02:52:55;9.30;;;2.40;;
72439;SDS011;60446;50.752;4.352;2023-07-31T02:55:22;9.20;;;2.35;;
72439;SDS011;60446;50.752;4.352;2023-07-31T02:57:50;7.80;;;2.58;;
72439;SDS011;60446;50.752;4.352;2023-07-31T03:00:19;8.15;;;2.40;;
72439;SDS011;60446;50.752;4.352;2023-07-31T03:02:47;11.00;;;2.83;;
72439;SDS011;60446;50.752;4.352;2023-07-31T03:05:14;8.23;;;2.30;;
72439;SDS011;60446;50.752;4.352;2023-07-31T03:07:41;10.05;;;2.42;;
72439;SDS011;60446;50.752;4.352;2023-07-31T03:10:08;8.27;;;2.63;;
72439;SDS011;60446;50.752;4.352;2023-07-31T03:12:36;10.15;;;2.20;;
72439;SDS011;60446;50.752;4.352;2023-07-31T03:15:03;8.60;;;2.63;;
72439;SDS011;60446;50.752;4.352;2023-07-31T03:17:31;8.10;;;2.10;;
72439;SDS011;60446;50.752;4.352;2023-07-31T03:19:58;8.32;;;2.20;;
72439;SDS011;60446;50.752;4.352;2023-07-31T03:22:25;8.50;;;2.30;;
72439;SDS011;60446;50.752;4.352;2023-07-31T03:24:52;9.27;;;2.38;;
72439;SDS011;60446;50.752;4.352;2023-07-31T03:27:20;8.20;;;2.57;;
72439;SDS011;60446;50.752;4.352;2023-07-31T03:29:47;7.85;;;2.03;;
72439;SDS011;60446;50.752;4.352;2023-07-31T03:32:16;7.40;;;2.47;;
72439;SDS011;60446;50.752;4.352;2023-07-31T03:34:43;9.80;;;2.50;;
72439;SDS011;60446;50.752;4.352;2023-07-31T03:37:10;10.93;;;2.60;;
72439;SDS011;60446;50.752;4.352;2023-07-31T03:39:37;10.10;;;2.07;;
72439;SDS011;60446;50.752;4.352;2023-07-31T03:42:05;8.75;;;2.75;;
72439;SDS011;60446;50.752;4.352;2023-07-31T03:44:32;8.38;;;2.35;;
72439;SDS011;60446;50.752;4.352;2023-07-31T03:47:00;9.48;;;2.53;;
72439;SDS011;60446;50.752;4.352;2023-07-31T03:49:27;7.05;;;2.10;;
72439;SDS011;60446;50.752;4.352;2023-07-31T03:51:54;10.10;;;2.60;;
72439;SDS011;60446;50.752;4.352;2023-07-31T03:54:21;8.13;;;2.60;;
72439;SDS011;60446;50.752;4.352;2023-07-31T03:56:49;9.88;;;2.35;;
72439;SDS011;60446;50.752;4.352;2023-07-31T03:59:16;8.85;;;2.10;;
72439;SDS011;60446;50.752;4.352;2023-07-31T04:01:43;9.32;;;2.28;;
72439;SDS011;60446;50.752;4.352;2023-07-31T04:04:10;8.30;;;2.23;;
72439;SDS011;60446;50.752;4.352;2023-07-31T04:06:37;11.18;;;2.28;;
72439;SDS011;60446;50.752;4.352;2023-07-31T04:09:05;6.38;;;1.85;;
72439;SDS011;60446;50.752;4.352;2023-07-31T04:11:33;8.27;;;2.25;;
72439;SDS011;60446;50.752;4.352;2023-07-31T04:14:00;7.72;;;2.20;;
72439;SDS011;60446;50.752;4.352;2023-07-31T04:16:27;9.43;;;2.50;;
72439;SDS011;60446;50.752;4.352;2023-07-31T04:18:54;8.70;;;2.20;;
72439;SDS011;60446;50.752;4.352;2023-07-31T04:21:21;6.57;;;2.20;;
72439;SDS011;60446;50.752;4.352;2023-07-31T04:23:48;8.63;;;2.20;;
72439;SDS011;60446;50.752;4.352;2023-07-31T04:26:16;7.40;;;2.40;;
72439;SDS011;60446;50.752;4.352;2023-07-31T04:28:43;10.27;;;2.33;;
72439;SDS011;60446;50.752;4.352;2023-07-31T04:31:10;7.03;;;2.10;;
72439;SDS011;60446;50.752;4.352;2023-07-31T04:33:37;9.15;;;2.28;;
72439;SDS011;60446;50.752;4.352;2023-07-31T04:36:04;6.57;;;2.13;;
72439;SDS011;60446;50.752;4.352;2023-07-31T04:38:32;8.48;;;2.63;;
72439;SDS011;60446;50.752;4.352;2023-07-31T04:40:59;10.03;;;2.27;;
72439;SDS011;60446;50.752;4.352;2023-07-31T04:43:26;7.97;;;2.17;;
72439;SDS011;60446;50.752;4.352;2023-07-31T04:45:53;6.40;;;2.17;;
72439;SDS011;60446;50.752;4.352;2023-07-31T04:48:20;8.15;;;2.50;;
72439;SDS011;60446;50.752;4.352;2023-07-31T04:50:48;9.70;;;2.10;;
72439;SDS011;60446;50.752;4.352;2023-07-31T04:53:15;6.73;;;2.10;;
72439;SDS011;60446;50.752;4.352;2023-07-31T04:55:42;10.35;;;2.13;;
72439;SDS011;60446;50.752;4.352;2023-07-31T04:58:10;9.32;;;2.38;;
72439;SDS011;60446;50.752;4.352;2023-07-31T05:00:37;7.05;;;2.50;;
72439;SDS011;60446;50.752;4.352;2023-07-31T05:03:04;7.60;;;2.38;;
72439;SDS011;60446;50.752;4.352;2023-07-31T05:05:31;9.23;;;2.30;;
72439;SDS011;60446;50.752;4.352;2023-07-31T05:07:59;6.63;;;2.00;;
72439;SDS011;60446;50.752;4.352;2023-07-31T05:10:26;11.15;;;2.33;;
72439;SDS011;60446;50.752;4.352;2023-07-31T05:12:53;7.55;;;2.70;;
72439;SDS011;60446;50.752;4.352;2023-07-31T05:15:20;11.35;;;2.50;;
72439;SDS011;60446;50.752;4.352;2023-07-31T05:17:47;11.30;;;2.30;;
72439;SDS011;60446;50.752;4.352;2023-07-31T05:20:15;8.60;;;2.55;;
72439;SDS011;60446;50.752;4.352;2023-07-31T05:22:42;7.00;;;1.67;;
72439;SDS011;60446;50.752;4.352;2023-07-31T05:25:09;10.98;;;2.75;;
72439;SDS011;60446;50.752;4.352;2023-07-31T05:27:36;9.23;;;2.55;;
72439;SDS011;60446;50.752;4.352;2023-07-31T05:30:04;8.13;;;3.03;;
72439;SDS011;60446;50.752;4.352;2023-07-31T05:32:32;8.90;;;2.42;;
72439;SDS011;60446;50.752;4.352;2023-07-31T05:34:59;9.60;;;2.22;;
72439;SDS011;60446;50.752;4.352;2023-07-31T05:37:26;8.52;;;2.47;;
72439;SDS011;60446;50.752;4.352;2023-07-31T05:39:54;9.00;;;2.42;;
72439;SDS011;60446;50.752;4.352;2023-07-31T05:42:21;7.73;;;2.10;;
72439;SDS011;60446;50.752;4.352;2023-07-31T05:44:48;7.78;;;2.08;;
72439;SDS011;60446;50.752;4.352;2023-07-31T05:47:15;11.05;;;2.33;;
72439;SDS011;60446;50.752;4.352;2023-07-31T05:49:42;10.40;;;2.30;;
72439;SDS011;60446;50.752;4.352;2023-07-31T05:52:10;9.15;;;2.10;;
72439;SDS011;60446;50.752;4.352;2023-07-31T05:54:38;7.63;;;1.90;;
72439;SDS011;60446;50.752;4.352;2023-07-31T05:57:05;9.20;;;2.53;;
72439;SDS011;60446;50.752;4.352;2023-07-31T05:59:32;10.52;;;2.75;;
72439;SDS011;60446;50.752;4.352;2023-07-31T06:02:00;8.45;;;2.55;;
72439;SDS011;60446;50.752;4.352;2023-07-31T06:04:27;8.88;;;2.60;;
72439;SDS011;60446;50.752;4.352;2023-07-31T06:06:54;11.40;;;2.60;;
72439;SDS011;60446;50.752;4.352;2023-07-31T06:09:22;9.30;;;2.33;;
72439;SDS011;60446;50.752;4.352;2023-07-31T06:11:50;6.20;;;1.67;;
72439;SDS011;60446;50.752;4.352;2023-07-31T06:14:17;9.98;;;2.42;;
72439;SDS011;60446;50.752;4.352;2023-07-31T06:16:44;9.40;;;2.42;;
72439;SDS011;60446;50.752;4.352;2023-07-31T06:19:11;10.03;;;2.20;;
72439;SDS011;60446;50.752;4.352;2023-07-31T06:21:39;8.98;;;2.38;;
72439;SDS011;60446;50.752;4.352;2023-07-31T06:24:08;8.02;;;1.90;;
72439;SDS011;60446;50.752;4.352;2023-07-31T06:26:35;7.95;;;2.58;;
72439;SDS011;60446;50.752;4.352;2023-07-31T06:29:03;7.38;;;1.85;;
72439;SDS011;60446;50.752;4.352;2023-07-31T06:31:30;9.13;;;2.10;;
72439;SDS011;60446;50.752;4.352;2023-07-31T06:33:58;7.78;;;1.98;;
72439;SDS011;60446;50.752;4.352;2023-07-31T06:36:25;10.30;;;1.95;;
72439;SDS011;60446;50.752;4.352;2023-07-31T06:38:52;8.50;;;1.90;;
72439;SDS011;60446;50.752;4.352;2023-07-31T06:41:19;7.88;;;1.95;;
72439;SDS011;60446;50.752;4.352;2023-07-31T06:43:47;11.73;;;2.63;;
72439;SDS011;60446;50.752;4.352;2023-07-31T06:46:14;8.50;;;2.03;;
72439;SDS011;60446;50.752;4.352;2023-07-31T06:48:41;9.07;;;2.10;;
72439;SDS011;60446;50.752;4.352;2023-07-31T06:51:08;14.48;;;2.50;;
72439;SDS011;60446;50.752;4.352;2023-07-31T06:53:36;8.05;;;1.92;;
72439;SDS011;60446;50.752;4.352;2023-07-31T06:56:03;9.50;;;1.80;;
72439;SDS011;60446;50.752;4.352;2023-07-31T06:58:31;7.90;;;1.90;;
72439;SDS011;60446;50.752;4.352;2023-07-31T07:00:58;8.50;;;1.80;;
72439;SDS011;60446;50.752;4.352;2023-07-31T07:03:25;6.80;;;1.90;;
72439;SDS011;60446;50.752;4.352;2023-07-31T07:05:52;6.80;;;1.75;;
72439;SDS011;60446;50.752;4.352;2023-07-31T07:08:19;7.40;;;2.10;;
72439;SDS011;60446;50.752;4.352;2023-07-31T07:10:47;6.15;;;1.60;;
72439;SDS011;60446;50.752;4.352;2023-07-31T07:13:14;7.88;;;1.88;;
72439;SDS011;60446;50.752;4.352;2023-07-31T07:15:41;7.90;;;1.60;;
72439;SDS011;60446;50.752;4.352;2023-07-31T07:18:08;6.25;;;1.95;;
72439;SDS011;60446;50.752;4.352;2023-07-31T07:20:37;9.00;;;1.73;;
72439;SDS011;60446;50.752;4.352;2023-07-31T07:23:04;6.55;;;1.30;;
72439;SDS011;60446;50.752;4.352;2023-07-31T07:25:31;7.50;;;1.95;;
72439;SDS011;60446;50.752;4.352;2023-07-31T07:27:59;6.35;;;1.45;;
72439;SDS011;60446;50.752;4.352;2023-07-31T07:30:27;9.63;;;1.70;;
72439;SDS011;60446;50.752;4.352;2023-07-31T07:32:54;5.97;;;1.50;;
72439;SDS011;60446;50.752;4.352;2023-07-31T07:35:21;9.02;;;1.70;;
72439;SDS011;60446;50.752;4.352;2023-07-31T07:37:48;9.00;;;1.70;;
72439;SDS011;60446;50.752;4.352;2023-07-31T07:40:20;7.28;;;2.15;;
72439;SDS011;60446;50.752;4.352;2023-07-31T07:42:47;7.20;;;1.85;;
72439;SDS011;60446;50.752;4.352;2023-07-31T07:45:14;6.10;;;1.60;;
72439;SDS011;60446;50.752;4.352;2023-07-31T07:47:42;8.13;;;1.70;;
72439;SDS011;60446;50.752;4.352;2023-07-31T07:50:09;6.15;;;1.23;;
72439;SDS011;60446;50.752;4.352;2023-07-31T07:52:37;7.38;;;1.75;;
72439;SDS011;60446;50.752;4.352;2023-07-31T07:55:04;8.88;;;1.63;;
72439;SDS011;60446;50.752;4.352;2023-07-31T07:57:31;8.00;;;1.93;;
72439;SDS011;60446;50.752;4.352;2023-07-31T07:59:59;7.85;;;1.33;;
72439;SDS011;60446;50.752;4.352;2023-07-31T08:02:26;7.03;;;2.05;;
72439;SDS011;60446;50.752;4.352;2023-07-31T08:04:53;6.53;;;1.48;;
72439;SDS011;60446;50.752;4.352;2023-07-31T08:07:20;7.65;;;1.95;;
72439;SDS011;60446;50.752;4.352;2023-07-31T08:09:47;5.90;;;1.73;;
72439;SDS011;60446;50.752;4.352;2023-07-31T08:12:15;6.97;;;1.60;;
72439;SDS011;60446;50.752;4.352;2023-07-31T08:14:42;6.93;;;1.73;;
72439;SDS011;60446;50.752;4.352;2023-07-31T08:17:09;8.20;;;1.60;;
72439;SDS011;60446;50.752;4.352;2023-07-31T08:19:36;7.80;;;1.60;;
72439;SDS011;60446;50.752;4.352;2023-07-31T08:22:03;8.17;;;1.90;;
72439;SDS011;60446;50.752;4.352;2023-07-31T08:24:31;6.65;;;1.50;;
72439;SDS011;60446;50.752;4.352;2023-07-31T08:26:58;5.63;;;1.45;;
72439;SDS011;60446;50.752;4.352;2023-07-31T08:29:25;7.00;;;1.67;;
72439;SDS011;60446;50.752;4.352;2023-07-31T08:31:53;7.72;;;1.35;;
72439;SDS011;60446;50.752;4.352;2023-07-31T08:34:20;5.83;;;1.60;;
72439;SDS011;60446;50.752;4.352;2023-07-31T08:36:47;8.32;;;2.05;;
72439;SDS011;60446;50.752;4.352;2023-07-31T08:39:14;6.97;;;1.40;;
72439;SDS011;60446;50.752;4.352;2023-07-31T08:41:41;6.07;;;1.40;;
72439;SDS011;60446;50.752;4.352;2023-07-31T08:44:08;9.30;;;1.80;;
72439;SDS011;60446;50.752;4.352;2023-07-31T08:46:38;9.13;;;1.63;;
72439;SDS011;60446;50.752;4.352;2023-07-31T08:49:06;6.60;;;1.70;;
72439;SDS011;60446;50.752;4.352;2023-07-31T08:51:34;7.40;;;1.95;;
72439;SDS011;60446;50.752;4.352;2023-07-31T08:54:02;5.85;;;1.88;;
72439;SDS011;60446;50.752;4.352;2023-07-31T08:56:32;6.78;;;1.80;;
72439;SDS011;60446;50.752;4.352;2023-07-31T08:59:02;7.30;;;2.03;;
72439;SDS011;60446;50.752;4.352;2023-07-31T09:01:31;6.20;;;1.75;;
72439;SDS011;60446;50.752;4.352;2023-07-31T09:04:03;8.07;;;1.70;;
72439;SDS011;60446;50.752;4.352;2023-07-31T09:06:31;10.38;;;1.98;;
72439;SDS011;60446;50.752;4.352;2023-07-31T09:09:00;6.72;;;1.58;;
72439;SDS011;60446;50.752;4.352;2023-07-31T09:11:28;7.97;;;1.70;;
72439;SDS011;60446;50.752;4.352;2023-07-31T09:13:57;10.50;;;2.03;;
72439;SDS011;60446;50.752;4.352;2023-07-31T09:16:28;8.32;;;1.58;;
72439;SDS011;60446;50.752;4.352;2023-07-31T09:18:59;8.32;;;1.92;;
72439;SDS011;60446;50.752;4.352;2023-07-31T09:21:28;8.45;;;1.90;;
72439;SDS011;60446;50.752;4.352;2023-07-31T09:23:56;6.77;;;1.83;;
72439;SDS011;60446;50.752;4.352;2023-07-31T09:26:36;6.22;;;1.73;;
72439;SDS011;60446;50.752;4.352;2023-07-31T09:29:05;6.80;;;1.73;;
72439;SDS011;60446;50.752;4.352;2023-07-31T09:31:38;6.20;;;1.52;;
72439;SDS011;60446;50.752;4.352;2023-07-31T09:34:07;8.15;;;2.05;;
72439;SDS011;60446;50.752;4.352;2023-07-31T09:36:49;6.03;;;1.80;;
72439;SDS011;60446;50.752;4.352;2023-07-31T09:39:17;7.82;;;2.30;;
72439;SDS011;60446;50.752;4.352;2023-07-31T09:41:55;11.63;;;2.05;;
72439;SDS011;60446;50.752;4.352;2023-07-31T09:44:37;8.07;;;2.25;;
72439;SDS011;60446;50.752;4.352;2023-07-31T09:47:07;9.90;;;2.95;;
72439;SDS011;60446;50.752;4.352;2023-07-31T09:49:52;8.53;;;2.10;;
72439;SDS011;60446;50.752;4.352;2023-07-31T09:52:20;8.95;;;2.33;;
72439;SDS011;60446;50.752;4.352;2023-07-31T09:54:47;9.35;;;1.95;;
72439;SDS011;60446;50.752;4.352;2023-07-31T09:57:14;10.20;;;1.77;;
72439;SDS011;60446;50.752;4.352;2023-07-31T09:59:46;11.45;;;2.35;;
72439;SDS011;60446;50.752;4.352;2023-07-31T10:02:20;8.93;;;2.53;;
72439;SDS011;60446;50.752;4.352;2023-07-31T10:04:49;11.35;;;2.70;;
72439;SDS011;60446;50.752;4.352;2023-07-31T10:07:18;10.40;;;2.20;;
72439;SDS011;60446;50.752;4.352;2023-07-31T10:09:47;9.40;;;2.55;;
72439;SDS011;60446;50.752;4.352;2023-07-31T10:12:14;7.15;;;2.25;;
72439;SDS011;60446;50.752;4.352;2023-07-31T10:14:45;8.53;;;2.63;;
72439;SDS011;60446;50.752;4.352;2023-07-31T10:17:13;7.93;;;2.13;;
72439;SDS011;60446;50.752;4.352;2023-07-31T10:19:41;7.43;;;2.22;;
72439;SDS011;60446;50.752;4.352;2023-07-31T10:22:09;10.88;;;2.20;;
72439;SDS011;60446;50.752;4.352;2023-07-31T10:24:39;8.85;;;2.50;;
72439;SDS011;60446;50.752;4.352;2023-07-31T10:27:09;7.30;;;2.30;;
72439;SDS011;60446;50.752;4.352;2023-07-31T10:29:37;7.93;;;1.80;;
72439;SDS011;60446;50.752;4.352;2023-07-31T10:32:06;8.07;;;2.20;;
72439;SDS011;60446;50.752;4.352;2023-07-31T10:34:36;10.15;;;2.85;;
72439;SDS011;60446;50.752;4.352;2023-07-31T10:37:40;9.88;;;2.17;;
72439;SDS011;60446;50.752;4.352;2023-07-31T10:40:23;8.77;;;2.13;;
72439;SDS011;60446;50.752;4.352;2023-07-31T10:42:53;8.07;;;2.25;;
72439;SDS011;60446;50.752;4.352;2023-07-31T10:48:15;9.68;;;2.70;;
72439;SDS011;60446;50.752;4.352;2023-07-31T10:50:54;11.90;;;2.65;;
72439;SDS011;60446;50.752;4.352;2023-07-31T10:53:28;8.97;;;2.57;;
72439;SDS011;60446;50.752;4.352;2023-07-31T10:56:04;8.32;;;2.42;;
72439;SDS011;60446;50.752;4.352;2023-07-31T10:58:39;11.98;;;2.50;;
72439;SDS011;60446;50.752;4.352;2023-07-31T11:01:06;8.55;;;2.58;;
72439;SDS011;60446;50.752;4.352;2023-07-31T11:03:46;11.00;;;2.45;;
72439;SDS011;60446;50.752;4.352;2023-07-31T11:06:18;11.87;;;2.83;;
72439;SDS011;60446;50.752;4.352;2023-07-31T11:08:46;10.60;;;2.50;;
72439;SDS011;60446;50.752;4.352;2023-07-31T11:11:16;14.02;;;2.90;;
72439;SDS011;60446;50.752;4.352;2023-07-31T11:13:46;8.55;;;2.33;;
72439;SDS011;60446;50.752;4.352;2023-07-31T11:16:20;8.02;;;2.15;;
72439;SDS011;60446;50.752;4.352;2023-07-31T11:18:50;8.10;;;2.40;;
72439;SDS011;60446;50.752;4.352;2023-07-31T11:21:23;8.85;;;2.30;;
72439;SDS011;60446;50.752;4.352;2023-07-31T11:23:57;9.20;;;2.35;;
72439;SDS011;60446;50.752;4.352;2023-07-31T11:26:25;7.93;;;2.15;;
72439;SDS011;60446;50.752;4.352;2023-07-31T11:28:52;8.85;;;2.80;;
72439;SDS011;60446;50.752;4.352;2023-07-31T11:31:19;9.00;;;2.90;;
72439;SDS011;60446;50.752;4.352;2023-07-31T11:33:47;9.48;;;2.20;;
72439;SDS011;60446;50.752;4.352;2023-07-31T11:36:15;8.18;;;2.17;;
72439;SDS011;60446;50.752;4.352;2023-07-31T11:38:44;11.57;;;2.45;;
72439;SDS011;60446;50.752;4.352;2023-07-31T11:41:13;7.88;;;2.25;;
72439;SDS011;60446;50.752;4.352;2023-07-31T11:43:48;9.50;;;2.13;;
72439;SDS011;60446;50.752;4.352;2023-07-31T11:46:15;9.80;;;2.45;;
72439;SDS011;60446;50.752;4.352;2023-07-31T11:48:42;9.38;;;2.42;;
72439;SDS011;60446;50.752;4.352;2023-07-31T11:51:10;8.02;;;2.25;;
72439;SDS011;60446;50.752;4.352;2023-07-31T11:56:14;8.97;;;2.23;;
72439;SDS011;60446;50.752;4.352;2023-07-31T11:58:48;8.68;;;2.20;;
72439;SDS011;60446;50.752;4.352;2023-07-31T12:01:21;7.57;;;2.15;;
72439;SDS011;60446;50.752;4.352;2023-07-31T12:03:49;7.40;;;2.05;;
72439;SDS011;60446;50.752;4.352;2023-07-31T12:06:17;8.68;;;1.67;;
72439;SDS011;60446;50.752;4.352;2023-07-31T12:08:47;7.67;;;1.73;;
72439;SDS011;60446;50.752;4.352;2023-07-31T12:11:15;8.48;;;1.98;;
72439;SDS011;60446;50.752;4.352;2023-07-31T12:13:44;6.90;;;2.08;;
72439;SDS011;60446;50.752;4.352;2023-07-31T12:16:11;9.45;;;2.17;;
72439;SDS011;60446;50.752;4.352;2023-07-31T12:18:38;10.95;;;2.90;;
72439;SDS011;60446;50.752;4.352;2023-07-31T12:21:07;8.87;;;2.27;;
72439;SDS011;60446;50.752;4.352;2023-07-31T12:23:37;11.73;;;2.42;;
72439;SDS011;60446;50.752;4.352;2023-07-31T12:26:09;8.55;;;2.42;;
72439;SDS011;60446;50.752;4.352;2023-07-31T12:31:17;9.52;;;2.47;;
72439;SDS011;60446;50.752;4.352;2023-07-31T12:33:48;10.30;;;2.63;;
72439;SDS011;60446;50.752;4.352;2023-07-31T12:36:21;9.18;;;2.88;;
72439;SDS011;60446;50.752;4.352;2023-07-31T12:38:50;9.25;;;2.55;;
72439;SDS011;60446;50.752;4.352;2023-07-31T12:41:18;11.32;;;2.60;;
72439;SDS011;60446;50.752;4.352;2023-07-31T12:43:46;8.50;;;2.88;;
72439;SDS011;60446;50.752;4.352;2023-07-31T12:46:13;9.77;;;2.90;;
72439;SDS011;60446;50.752;4.352;2023-07-31T12:48:41;11.10;;;2.92;;
72439;SDS011;60446;50.752;4.352;2023-07-31T12:51:08;8.38;;;2.42;;
72439;SDS011;60446;50.752;4.352;2023-07-31T12:53:36;9.93;;;2.08;;
72439;SDS011;60446;50.752;4.352;2023-07-31T12:56:03;7.43;;;2.45;;
72439;SDS011;60446;50.752;4.352;2023-07-31T12:58:31;10.30;;;2.73;;
72439;SDS011;60446;50.752;4.352;2023-07-31T13:00:58;9.68;;;2.42;;
72439;SDS011;60446;50.752;4.352;2023-07-31T13:03:25;8.20;;;2.22;;
72439;SDS011;60446;50.752;4.352;2023-07-31T13:05:54;7.72;;;2.22;;
72439;SDS011;60446;50.752;4.352;2023-07-31T13:08:21;9.70;;;2.72;;
72439;SDS011;60446;50.752;4.352;2023-07-31T13:10:48;9.00;;;2.33;;
72439;SDS011;60446;50.752;4.352;2023-07-31T13:13:16;7.95;;;2.20;;
72439;SDS011;60446;50.752;4.352;2023-07-31T13:15:43;7.53;;;2.00;;
72439;SDS011;60446;50.752;4.352;2023-07-31T13:18:11;10.40;;;2.67;;
72439;SDS011;60446;50.752;4.352;2023-07-31T13:20:38;9.35;;;2.67;;
72439;SDS011;60446;50.752;4.352;2023-07-31T13:23:05;8.27;;;1.90;;
72439;SDS011;60446;50.752;4.352;2023-07-31T13:25:32;8.57;;;2.30;;
72439;SDS011;60446;50.752;4.352;2023-07-31T13:28:00;7.43;;;1.98;;
72439;SDS011;60446;50.752;4.352;2023-07-31T13:30:29;8.18;;;1.92;;
72439;SDS011;60446;50.752;4.352;2023-07-31T13:32:56;7.57;;;2.28;;
72439;SDS011;60446;50.752;4.352;2023-07-31T13:35:23;10.37;;;2.43;;
72439;SDS011;60446;50.752;4.352;2023-07-31T13:37:51;7.30;;;1.75;;
72439;SDS011;60446;50.752;4.352;2023-07-31T13:40:18;8.82;;;2.10;;
72439;SDS011;60446;50.752;4.352;2023-07-31T13:42:45;8.02;;;2.28;;
72439;SDS011;60446;50.752;4.352;2023-07-31T13:45:14;8.70;;;1.75;;
72439;SDS011;60446;50.752;4.352;2023-07-31T13:47:41;8.07;;;1.53;;
72439;SDS011;60446;50.752;4.352;2023-07-31T13:50:09;7.25;;;1.92;;
72439;SDS011;60446;50.752;4.352;2023-07-31T13:52:36;9.32;;;1.45;;
72439;SDS011;60446;50.752;4.352;2023-07-31T13:55:03;7.18;;;1.73;;
72439;SDS011;60446;50.752;4.352;2023-07-31T13:57:31;6.63;;;1.42;;
72439;SDS011;60446;50.752;4.352;2023-07-31T13:59:58;7.43;;;1.63;;
72439;SDS011;60446;50.752;4.352;2023-07-31T14:02:25;6.88;;;1.67;;
72439;SDS011;60446;50.752;4.352;2023-07-31T14:04:52;6.50;;;1.67;;
72439;SDS011;60446;50.752;4.352;2023-07-31T14:07:20;6.50;;;1.60;;
72439;SDS011;60446;50.752;4.352;2023-07-31T14:09:47;8.10;;;2.15;;
72439;SDS011;60446;50.752;4.352;2023-07-31T14:12:17;8.27;;;2.00;;
72439;SDS011;60446;50.752;4.352;2023-07-31T14:15:05;6.25;;;2.10;;
72439;SDS011;60446;50.752;4.352;2023-07-31T14:17:33;8.38;;;1.90;;
72439;SDS011;60446;50.752;4.352;2023-07-31T14:20:00;6.68;;;1.38;;
72439;SDS011;60446;50.752;4.352;2023-07-31T14:22:29;6.38;;;1.70;;
72439;SDS011;60446;50.752;4.352;2023-07-31T14:24:59;7.90;;;2.27;;
72439;SDS011;60446;50.752;4.352;2023-07-31T14:27:27;5.97;;;1.90;;
72439;SDS011;60446;50.752;4.352;2023-07-31T14:29:55;6.72;;;1.75;;
72439;SDS011;60446;50.752;4.352;2023-07-31T14:32:22;4.53;;;1.30;;
72439;SDS011;60446;50.752;4.352;2023-07-31T14:34:52;7.00;;;1.73;;
72439;SDS011;60446;50.752;4.352;2023-07-31T14:37:19;7.70;;;1.97;;
72439;SDS011;60446;50.752;4.352;2023-07-31T14:39:46;5.40;;;1.60;;
72439;SDS011;60446;50.752;4.352;2023-07-31T14:42:13;5.47;;;1.27;;
72439;SDS011;60446;50.752;4.352;2023-07-31T14:44:42;6.55;;;1.55;;
72439;SDS011;60446;50.752;4.352;2023-07-31T14:47:09;5.07;;;1.52;;
72439;SDS011;60446;50.752;4.352;2023-07-31T14:49:37;4.73;;;1.43;;
72439;SDS011;60446;50.752;4.352;2023-07-31T14:52:04;5.57;;;1.40;;
72439;SDS011;60446;50.752;4.352;2023-07-31T14:54:31;5.00;;;1.00;;
72439;SDS011;60446;50.752;4.352;2023-07-31T14:56:58;4.80;;;1.27;;
72439;SDS011;60446;50.752;4.352;2023-07-31T14:59:25;5.30;;;1.30;;
72439;SDS011;60446;50.752;4.352;2023-07-31T15:01:53;4.60;;;1.10;;
72439;SDS011;60446;50.752;4.352;2023-07-31T15:04:20;5.18;;;1.08;;
72439;SDS011;60446;50.752;4.352;2023-07-31T15:06:49;5.22;;;1.50;;
72439;SDS011;60446;50.752;4.352;2023-07-31T15:09:18;5.20;;;1.48;;
72439;SDS011;60446;50.752;4.352;2023-07-31T15:11:45;5.15;;;1.13;;
72439;SDS011;60446;50.752;4.352;2023-07-31T15:14:13;4.67;;;1.00;;